Time;durP1;ratioP1;P1;durP2;ratioP2;P2;SDS_P1;SDS_P2;PMS_P1;PMS_P2;Temp;Humidity;BMP_temperature;BMP_pressure;BME280_temperature;BME280_humidity;BME280_pressure;Samples;Min_cycle;Max_cycle;Signal;HPM_P1;HPM_P2
2020/12/06 00:00:00;;;;;;;34.63;17.52;;;;;;;;;;5027326;28;20424;-70
2020/12/06 00:02:25;;;;;;;32.90;16.35;;;;;;;;;;5024403;28;20026;-70
2020/12/06 00:04:50;;;;;;;35.55;18.85;;;;;;;;;;5028343;28;20071;-70
2020/12/06 00:07:15;;;;;;;34.17;16.83;;;;;;;;;;5029481;28;20029;-70
2020/12/06 00:09:40;;;;;;;31.23;15.77;;;;;;;;;;5028311;28;20033;-70
2020/12/06 00:12:06;;;;;;;30.60;15.75;;;;;;;;;;5028522;28;20021;-70
2020/12/06 00:14:31;;;;;;;29.77;14.67;;;;;;;;;;5027618;28;20541;-70
2020/12/06 00:16:56;;;;;;;32.65;15.45;;;;;;;;;;5027092;28;20531;-71
2020/12/06 00:19:21;;;;;;;28.02;15.30;;;;;;;;;;5009014;28;20026;-70
2020/12/06 00:21:47;;;;;;;32.75;16.38;;;;;;;;;;5025749;28;20019;-71
2020/12/06 00:24:12;;;;;;;30.05;15.50;;;;;;;;;;5027055;28;20045;-71
2020/12/06 00:26:38;;;;;;;31.20;16.25;;;;;;;;;;5027878;28;20462;-70
2020/12/06 00:29:03;;;;;;;30.10;15.75;;;;;;;;;;5027324;28;20036;-70
2020/12/06 00:31:28;;;;;;;30.45;16.02;;;;;;;;;;5027850;28;20014;-72
2020/12/06 00:33:53;;;;;;;35.60;16.00;;;;;;;;;;5024645;28;20030;-70
2020/12/06 00:36:19;;;;;;;29.92;14.77;;;;;;;;;;5027525;28;20028;-72
2020/12/06 00:38:44;;;;;;;31.05;14.43;;;;;;;;;;5027736;28;20025;-71
2020/12/06 00:41:10;;;;;;;31.63;16.45;;;;;;;;;;5022470;28;20036;-71
2020/12/06 00:43:35;;;;;;;33.58;17.80;;;;;;;;;;5027304;28;20017;-71
2020/12/06 00:46:00;;;;;;;31.13;15.05;;;;;;;;;;5024092;28;20720;-72
2020/12/06 00:48:26;;;;;;;31.83;16.38;;;;;;;;;;5026590;28;20052;-71
2020/12/06 00:50:51;;;;;;;30.58;16.45;;;;;;;;;;5027814;28;20099;-70
2020/12/06 00:53:16;;;;;;;32.97;16.83;;;;;;;;;;5028446;28;20014;-74
2020/12/06 00:55:41;;;;;;;33.58;16.05;;;;;;;;;;5028008;28;20021;-70
2020/12/06 00:58:06;;;;;;;28.57;14.60;;;;;;;;;;5027869;28;20117;-72
2020/12/06 01:00:31;;;;;;;31.35;15.57;;;;;;;;;;5029127;28;20276;-71
2020/12/06 01:02:57;;;;;;;30.15;14.60;;;;;;;;;;5028634;28;20061;-74
2020/12/06 01:05:22;;;;;;;33.40;16.65;;;;;;;;;;5028618;28;20051;-70
2020/12/06 01:07:47;;;;;;;35.70;17.55;;;;;;;;;;5032242;28;20025;-73
2020/12/06 01:10:12;;;;;;;36.33;18.98;;;;;;;;;;5032722;28;20104;-70
2020/12/06 01:12:38;;;;;;;37.33;18.15;;;;;;;;;;5032716;28;20029;-71
2020/12/06 01:15:04;;;;;;;33.03;17.20;;;;;;;;;;5032478;28;20037;-73
2020/12/06 01:17:29;;;;;;;36.50;18.95;;;;;;;;;;5031049;28;20033;-70
2020/12/06 01:19:54;;;;;;;35.80;17.35;;;;;;;;;;5030416;28;20013;-70
2020/12/06 01:22:20;;;;;;;36.23;18.53;;;;;;;;;;5032278;28;20442;-72
2020/12/06 01:24:45;;;;;;;37.08;18.27;;;;;;;;;;5032001;28;20275;-71
2020/12/06 01:27:10;;;;;;;36.00;17.90;;;;;;;;;;5025899;28;20055;-71
2020/12/06 01:29:35;;;;;;;34.33;17.20;;;;;;;;;;5031950;28;20467;-70
2020/12/06 01:32:01;;;;;;;39.85;18.48;;;;;;;;;;5031392;28;20111;-70
2020/12/06 01:34:26;;;;;;;34.05;17.95;;;;;;;;;;5031011;28;20028;-71
2020/12/06 01:36:51;;;;;;;39.85;20.70;;;;;;;;;;5045451;23;20041;-67
2020/12/06 01:39:17;;;;;;;41.13;19.63;;;;;;;;;;5051779;28;20075;-66
2020/12/06 01:41:42;;;;;;;38.55;18.80;;;;;;;;;;5050551;28;20472;-66
2020/12/06 01:44:07;;;;;;;37.47;19.75;;;;;;;;;;5052180;28;20075;-66
2020/12/06 01:46:35;;;;;;;36.63;19.38;;;;;;;;;;5051922;28;20075;-66
2020/12/06 01:49:00;;;;;;;40.00;19.17;;;;;;;;;;5050954;28;20025;-68
2020/12/06 01:51:26;;;;;;;38.00;19.30;;;;;;;;;;5050599;28;20117;-66
2020/12/06 01:53:51;;;;;;;38.33;19.17;;;;;;;;;;5051327;28;20743;-66
2020/12/06 01:56:19;;;;;;;45.22;18.98;;;;;;;;;;5051420;28;20480;-67
2020/12/06 01:58:45;;;;;;;35.97;19.17;;;;;;;;;;5057172;28;20479;-67
2020/12/06 02:01:10;;;;;;;34.08;16.55;;;;;;;;;;5051351;28;20048;-66
2020/12/06 02:03:36;;;;;;;35.05;15.95;;;;;;;;;;5051720;28;20103;-67
2020/12/06 02:06:02;;;;;;;33.70;15.88;;;;;;;;;;5048574;28;20753;-66
2020/12/06 02:08:27;;;;;;;36.13;16.60;;;;;;;;;;5050408;28;20056;-66
2020/12/06 02:10:52;;;;;;;37.88;18.13;;;;;;;;;;5051381;28;20056;-66
2020/12/06 02:13:19;;;;;;;41.40;17.38;;;;;;;;;;5054071;28;20531;-67
2020/12/06 02:15:45;;;;;;;40.40;19.63;;;;;;;;;;5052717;28;20029;-66
2020/12/06 02:18:10;;;;;;;33.30;17.40;;;;;;;;;;5050784;28;20025;-68
2020/12/06 02:20:35;;;;;;;37.25;18.50;;;;;;;;;;5046811;28;20263;-66
2020/12/06 02:23:00;;;;;;;39.47;19.35;;;;;;;;;;5048544;28;20095;-68
2020/12/06 02:25:25;;;;;;;38.55;17.42;;;;;;;;;;5049850;28;20020;-66
2020/12/06 02:27:50;;;;;;;38.13;18.13;;;;;;;;;;5050459;28;20270;-68
2020/12/06 02:30:16;;;;;;;34.70;17.85;;;;;;;;;;5050599;28;20274;-67
2020/12/06 02:32:41;;;;;;;34.65;18.08;;;;;;;;;;5050799;28;20033;-66
2020/12/06 02:35:06;;;;;;;38.43;17.73;;;;;;;;;;5050720;28;20046;-66
2020/12/06 02:37:32;;;;;;;34.40;17.58;;;;;;;;;;5055870;28;20279;-66
2020/12/06 02:39:57;;;;;;;34.60;18.95;;;;;;;;;;5047937;28;20017;-67
2020/12/06 02:42:23;;;;;;;38.70;17.98;;;;;;;;;;5050802;28;20033;-67
2020/12/06 02:44:48;;;;;;;35.55;16.60;;;;;;;;;;5050114;28;20112;-67
2020/12/06 02:47:13;;;;;;;35.70;17.50;;;;;;;;;;5049612;28;20091;-66
2020/12/06 02:49:39;;;;;;;35.40;17.35;;;;;;;;;;5045914;28;20028;-66
2020/12/06 02:52:05;;;;;;;30.73;16.00;;;;;;;;;;5044309;28;20067;-67
2020/12/06 02:54:31;;;;;;;33.83;16.67;;;;;;;;;;5050597;28;20028;-67
2020/12/06 02:56:56;;;;;;;31.35;16.70;;;;;;;;;;5050477;28;20103;-67
2020/12/06 02:59:21;;;;;;;36.78;17.77;;;;;;;;;;5048980;28;20748;-67
2020/12/06 03:01:46;;;;;;;32.35;15.70;;;;;;;;;;5050258;28;20262;-67
2020/12/06 03:04:11;;;;;;;32.70;16.73;;;;;;;;;;5049632;28;20266;-67
2020/12/06 03:06:36;;;;;;;28.52;14.75;;;;;;;;;;5049161;28;20900;-67
2020/12/06 03:09:01;;;;;;;33.73;16.60;;;;;;;;;;5049917;28;20025;-67
2020/12/06 03:11:27;;;;;;;29.70;14.98;;;;;;;;;;5050623;28;20751;-67
2020/12/06 03:13:53;;;;;;;29.67;15.15;;;;;;;;;;5047802;28;20044;-67
2020/12/06 03:16:18;;;;;;;33.95;16.75;;;;;;;;;;5050207;28;20101;-67
2020/12/06 03:18:44;;;;;;;28.15;15.13;;;;;;;;;;5047772;28;20068;-67
2020/12/06 03:21:10;;;;;;;30.08;14.85;;;;;;;;;;5049111;28;20152;-67
2020/12/06 03:23:35;;;;;;;31.75;16.35;;;;;;;;;;5049905;28;20039;-67
2020/12/06 03:26:00;;;;;;;33.47;16.02;;;;;;;;;;5050104;28;20624;-67
2020/12/06 03:28:25;;;;;;;30.13;15.88;;;;;;;;;;5049594;28;20025;-67
2020/12/06 03:30:50;;;;;;;30.27;14.63;;;;;;;;;;5049509;28;20911;-67
2020/12/06 03:33:15;;;;;;;34.20;18.00;;;;;;;;;;5049509;28;20275;-67
2020/12/06 03:35:41;;;;;;;31.25;16.55;;;;;;;;;;5049896;28;20032;-67
2020/12/06 03:38:06;;;;;;;33.20;16.63;;;;;;;;;;5049032;28;20061;-67
2020/12/06 03:40:31;;;;;;;29.27;14.65;;;;;;;;;;5049523;28;20021;-67
2020/12/06 03:42:56;;;;;;;30.02;14.18;;;;;;;;;;5049117;28;20477;-67
2020/12/06 03:45:21;;;;;;;26.87;13.17;;;;;;;;;;5049339;28;20033;-67
2020/12/06 03:47:47;;;;;;;28.60;14.30;;;;;;;;;;5045407;28;20274;-67
2020/12/06 03:50:12;;;;;;;31.13;14.85;;;;;;;;;;5048156;28;20032;-67
2020/12/06 03:52:37;;;;;;;29.23;14.73;;;;;;;;;;5049212;28;20037;-67
2020/12/06 03:55:03;;;;;;;24.85;12.88;;;;;;;;;;5049482;28;20043;-67
2020/12/06 03:57:28;;;;;;;25.42;13.13;;;;;;;;;;5049611;28;20820;-67
2020/12/06 03:59:53;;;;;;;25.05;13.55;;;;;;;;;;5049378;28;20025;-67
2020/12/06 04:02:18;;;;;;;25.15;13.02;;;;;;;;;;5049177;28;20477;-67
2020/12/06 04:04:44;;;;;;;25.25;12.95;;;;;;;;;;5049201;28;20542;-67
2020/12/06 04:07:09;;;;;;;24.95;12.38;;;;;;;;;;5048863;28;20027;-67
2020/12/06 04:09:34;;;;;;;23.48;12.95;;;;;;;;;;5049024;28;20051;-65
2020/12/06 04:12:00;;;;;;;32.33;14.05;;;;;;;;;;5047908;28;20097;-66
2020/12/06 04:14:25;;;;;;;28.13;14.52;;;;;;;;;;5048873;28;20400;-65
2020/12/06 04:16:50;;;;;;;25.15;14.88;;;;;;;;;;5049383;28;20632;-67
2020/12/06 04:19:15;;;;;;;26.25;14.32;;;;;;;;;;5052445;28;20017;-66
2020/12/06 04:21:40;;;;;;;32.77;15.20;;;;;;;;;;5053337;28;20461;-65
2020/12/06 04:24:05;;;;;;;29.25;14.60;;;;;;;;;;5047542;28;20267;-66
2020/12/06 04:26:31;;;;;;;28.63;14.50;;;;;;;;;;5048420;28;20958;-66
2020/12/06 04:28:57;;;;;;;29.42;15.27;;;;;;;;;;5045111;28;20268;-66
2020/12/06 04:31:22;;;;;;;37.72;15.45;;;;;;;;;;5051460;28;20566;-66
2020/12/06 04:33:47;;;;;;;33.85;15.43;;;;;;;;;;5049262;28;20033;-66
2020/12/06 04:36:13;;;;;;;27.45;13.98;;;;;;;;;;5048784;28;20021;-65
2020/12/06 04:38:38;;;;;;;27.92;14.95;;;;;;;;;;5047508;28;20511;-66
2020/12/06 04:41:03;;;;;;;26.73;13.73;;;;;;;;;;5051091;28;20521;-64
2020/12/06 04:43:29;;;;;;;28.35;14.68;;;;;;;;;;5053382;28;20021;-66
2020/12/06 04:45:54;;;;;;;28.08;15.10;;;;;;;;;;5053140;28;20020;-66
2020/12/06 04:48:45;;;;;;;28.80;14.50;;;;;;;;;;5052555;28;20035;-66
2020/12/06 04:51:12;;;;;;;26.63;13.95;;;;;;;;;;5052233;28;20020;-66
2020/12/06 04:53:44;;;;;;;25.58;13.82;;;;;;;;;;5053110;28;20120;-66
2020/12/06 04:56:10;;;;;;;29.45;14.10;;;;;;;;;;5048589;28;20021;-67
2020/12/06 04:58:37;;;;;;;28.48;13.40;;;;;;;;;;5049092;28;20113;-66
2020/12/06 05:01:03;;;;;;;26.77;13.85;;;;;;;;;;5049022;28;20107;-66
2020/12/06 05:03:30;;;;;;;27.13;14.43;;;;;;;;;;5052228;28;20450;-65
2020/12/06 05:05:55;;;;;;;30.67;14.82;;;;;;;;;;5052632;28;20299;-66
2020/12/06 05:08:21;;;;;;;29.77;14.10;;;;;;;;;;5052447;28;20444;-66
2020/12/06 05:10:46;;;;;;;24.08;12.57;;;;;;;;;;5050313;28;20032;-66
2020/12/06 05:13:12;;;;;;;24.75;12.85;;;;;;;;;;5055065;28;20427;-66
2020/12/06 05:15:37;;;;;;;25.70;13.68;;;;;;;;;;5052410;28;20028;-66
2020/12/06 05:18:03;;;;;;;26.98;14.35;;;;;;;;;;5052390;28;20028;-66
2020/12/06 05:20:28;;;;;;;31.17;14.68;;;;;;;;;;5052270;28;20461;-67
2020/12/06 05:22:54;;;;;;;26.17;13.32;;;;;;;;;;5052444;28;20027;-66
2020/12/06 05:25:19;;;;;;;26.50;14.05;;;;;;;;;;5052377;28;20025;-66
2020/12/06 05:27:44;;;;;;;30.02;13.90;;;;;;;;;;5052964;28;20021;-67
2020/12/06 05:30:10;;;;;;;22.10;12.97;;;;;;;;;;5051060;28;20389;-65
2020/12/06 05:32:35;;;;;;;24.52;13.45;;;;;;;;;;5051938;28;20340;-65
2020/12/06 05:35:01;;;;;;;29.67;14.50;;;;;;;;;;5052304;28;20024;-66
2020/12/06 05:37:26;;;;;;;26.80;13.95;;;;;;;;;;5051796;28;20503;-67
2020/12/06 05:40:24;;;;;;;28.70;14.52;;;;;;;;;;5051659;28;20032;-65
2020/12/06 05:42:49;;;;;;;27.13;12.60;;;;;;;;;;5018201;28;20116;-66
2020/12/06 05:45:17;;;;;;;21.75;11.77;;;;;;;;;;5051442;28;20158;-66
2020/12/06 05:47:42;;;;;;;23.50;12.90;;;;;;;;;;5051822;28;20032;-66
2020/12/06 05:50:07;;;;;;;24.60;12.25;;;;;;;;;;5051028;28;20025;-66
2020/12/06 05:52:33;;;;;;;24.50;12.57;;;;;;;;;;5050971;28;20040;-66
2020/12/06 05:54:59;;;;;;;20.40;11.18;;;;;;;;;;5052118;28;20024;-66
2020/12/06 05:57:25;;;;;;;24.23;11.93;;;;;;;;;;5033762;28;20013;-66
2020/12/06 05:59:52;;;;;;;28.02;12.35;;;;;;;;;;5054692;28;20044;-67
2020/12/06 06:02:17;;;;;;;24.55;11.80;;;;;;;;;;5049359;28;20028;-67
2020/12/06 06:04:43;;;;;;;27.45;13.48;;;;;;;;;;5051355;28;20396;-67
2020/12/06 06:07:22;;;;;;;24.27;13.60;;;;;;;;;;5051650;28;20021;-67
2020/12/06 06:10:07;;;;;;;26.33;13.52;;;;;;;;;;5046106;28;20021;-67
2020/12/06 06:12:33;;;;;;;26.77;12.68;;;;;;;;;;5051133;28;20485;-67
2020/12/06 06:15:00;;;;;;;26.60;12.90;;;;;;;;;;5051140;28;20021;-67
2020/12/06 06:17:25;;;;;;;21.50;11.93;;;;;;;;;;5050464;28;20023;-67
2020/12/06 06:19:51;;;;;;;22.05;12.63;;;;;;;;;;5051349;28;20111;-67
2020/12/06 06:22:18;;;;;;;26.00;13.10;;;;;;;;;;5050649;28;20096;-67
2020/12/06 06:24:43;;;;;;;24.30;12.60;;;;;;;;;;5049074;28;20495;-67
2020/12/06 06:27:10;;;;;;;26.42;12.85;;;;;;;;;;5050855;28;20021;-67
2020/12/06 06:29:36;;;;;;;25.77;13.02;;;;;;;;;;5050354;28;20052;-67
2020/12/06 06:32:01;;;;;;;26.80;13.65;;;;;;;;;;5049140;28;20017;-67
2020/12/06 06:34:29;;;;;;;24.00;12.40;;;;;;;;;;5045523;28;20021;-67
2020/12/06 06:36:54;;;;;;;25.23;12.75;;;;;;;;;;5050003;28;20035;-67
2020/12/06 06:39:20;;;;;;;25.70;12.93;;;;;;;;;;5050505;28;20025;-67
2020/12/06 06:42:06;;;;;;;30.58;12.80;;;;;;;;;;5051021;28;20048;-68
2020/12/06 06:44:31;;;;;;;26.13;13.15;;;;;;;;;;5048852;28;20025;-67
2020/12/06 06:47:04;;;;;;;22.70;12.30;;;;;;;;;;5049030;28;20477;-67
2020/12/06 06:49:29;;;;;;;24.25;12.23;;;;;;;;;;5051105;28;20071;-67
2020/12/06 06:51:54;;;;;;;29.92;13.38;;;;;;;;;;5050244;28;20048;-67
2020/12/06 06:54:27;;;;;;;23.42;11.90;;;;;;;;;;5050175;28;20019;-67
2020/12/06 06:56:53;;;;;;;22.40;11.45;;;;;;;;;;5047702;28;20025;-68
2020/12/06 06:59:37;;;;;;;24.67;12.57;;;;;;;;;;5047624;28;20024;-67
2020/12/06 07:02:03;;;;;;;25.30;13.05;;;;;;;;;;5041096;28;20026;-67
2020/12/06 07:04:28;;;;;;;26.10;12.60;;;;;;;;;;5049218;28;20043;-67
2020/12/06 07:06:54;;;;;;;24.85;12.90;;;;;;;;;;5048247;28;20123;-67
2020/12/06 07:09:22;;;;;;;27.13;13.13;;;;;;;;;;5055960;28;20036;-67
2020/12/06 07:11:48;;;;;;;25.33;13.15;;;;;;;;;;5051175;28;20021;-67
2020/12/06 07:14:13;;;;;;;26.90;13.10;;;;;;;;;;5044710;28;20026;-67
2020/12/06 07:16:38;;;;;;;24.85;12.65;;;;;;;;;;5047046;28;20036;-67
2020/12/06 07:19:03;;;;;;;28.45;13.02;;;;;;;;;;5049900;28;20021;-67
2020/12/06 07:21:29;;;;;;;24.60;12.63;;;;;;;;;;5047101;28;20013;-66
2020/12/06 07:23:56;;;;;;;21.65;11.65;;;;;;;;;;5062467;28;20536;-66
2020/12/06 07:26:21;;;;;;;20.58;11.60;;;;;;;;;;5049242;28;20393;-67
2020/12/06 07:28:47;;;;;;;24.73;11.83;;;;;;;;;;5048721;28;20021;-66
2020/12/06 07:31:14;;;;;;;20.48;11.43;;;;;;;;;;5049699;28;20325;-66
2020/12/06 07:33:39;;;;;;;23.13;11.98;;;;;;;;;;5048553;28;20111;-67
2020/12/06 07:36:04;;;;;;;27.52;12.68;;;;;;;;;;5053895;28;20147;-66
2020/12/06 07:38:34;;;;;;;22.07;11.10;;;;;;;;;;5053099;28;20608;-66
2020/12/06 07:41:02;;;;;;;23.65;11.60;;;;;;;;;;5049109;28;20259;-67
2020/12/06 07:43:27;;;;;;;23.75;11.43;;;;;;;;;;5046437;28;20021;-66
2020/12/06 07:45:53;;;;;;;20.88;11.75;;;;;;;;;;5045669;28;20035;-67
2020/12/06 07:48:21;;;;;;;18.07;10.93;;;;;;;;;;5048790;28;20120;-65
2020/12/06 07:50:46;;;;;;;25.02;11.63;;;;;;;;;;5043990;28;20263;-66
2020/12/06 07:53:11;;;;;;;21.48;10.68;;;;;;;;;;5044449;28;20448;-66
2020/12/06 07:55:37;;;;;;;21.67;10.73;;;;;;;;;;5045989;28;20105;-66
2020/12/06 07:58:06;;;;;;;19.80;10.65;;;;;;;;;;5047414;28;20624;-67
2020/12/06 08:00:37;;;;;;;25.02;11.25;;;;;;;;;;5046167;28;20436;-67
2020/12/06 08:03:03;;;;;;;16.80;10.35;;;;;;;;;;5058604;28;20051;-67
2020/12/06 08:05:30;;;;;;;24.73;11.63;;;;;;;;;;5048005;28;20502;-66
2020/12/06 08:07:57;;;;;;;22.27;11.18;;;;;;;;;;5049473;28;20032;-66
2020/12/06 08:10:24;;;;;;;21.90;12.45;;;;;;;;;;5049415;28;20477;-66
2020/12/06 08:12:51;;;;;;;21.92;11.20;;;;;;;;;;5049098;28;20064;-67
2020/12/06 08:15:17;;;;;;;21.67;11.80;;;;;;;;;;5051473;28;20017;-67
2020/12/06 08:17:43;;;;;;;20.30;11.30;;;;;;;;;;5057412;28;20363;-67
2020/12/06 08:20:09;;;;;;;19.73;10.93;;;;;;;;;;5064198;28;20404;-68
2020/12/06 08:22:44;;;;;;;24.85;12.05;;;;;;;;;;5055051;28;20033;-68
2020/12/06 08:25:09;;;;;;;22.75;11.70;;;;;;;;;;5053322;28;20041;-67
2020/12/06 08:27:41;;;;;;;24.23;11.77;;;;;;;;;;5059108;28;20089;-67
2020/12/06 08:30:10;;;;;;;25.10;12.00;;;;;;;;;;5061755;28;20017;-67
2020/12/06 08:32:35;;;;;;;24.53;11.70;;;;;;;;;;5061449;28;20115;-67
2020/12/06 08:35:01;;;;;;;22.77;11.27;;;;;;;;;;5055189;28;20599;-67
2020/12/06 08:37:32;;;;;;;23.77;12.82;;;;;;;;;;5054891;28;20548;-66
2020/12/06 08:40:00;;;;;;;23.88;12.73;;;;;;;;;;5055704;28;20278;-66
2020/12/06 08:42:25;;;;;;;24.70;12.88;;;;;;;;;;5069978;28;20020;-66
2020/12/06 08:44:56;;;;;;;25.20;13.55;;;;;;;;;;5055032;28;20024;-65
2020/12/06 08:47:21;;;;;;;24.63;13.23;;;;;;;;;;5055727;28;20513;-66
2020/12/06 08:49:47;;;;;;;26.85;15.02;;;;;;;;;;5058725;28;20013;-66
2020/12/06 08:52:19;;;;;;;25.85;12.70;;;;;;;;;;5055598;28;20239;-66
2020/12/06 08:54:47;;;;;;;26.92;13.13;;;;;;;;;;5054393;28;20116;-65
2020/12/06 08:57:14;;;;;;;23.65;12.52;;;;;;;;;;5051195;28;20085;-67
2020/12/06 08:59:39;;;;;;;22.02;12.15;;;;;;;;;;5054989;28;20013;-67
2020/12/06 09:02:05;;;;;;;25.83;13.25;;;;;;;;;;5056555;28;20008;-67
2020/12/06 09:04:31;;;;;;;26.60;13.52;;;;;;;;;;5054292;28;20028;-66
2020/12/06 09:06:57;;;;;;;24.58;13.52;;;;;;;;;;5055767;28;20032;-66
2020/12/06 09:09:22;;;;;;;28.17;14.85;;;;;;;;;;5057244;28;20394;-66
2020/12/06 09:11:50;;;;;;;30.98;14.68;;;;;;;;;;5055405;28;20385;-66
2020/12/06 09:14:15;;;;;;;30.38;15.18;;;;;;;;;;5054550;28;20024;-66
2020/12/06 09:16:40;;;;;;;26.83;14.90;;;;;;;;;;5054688;28;20034;-66
2020/12/06 09:19:06;;;;;;;25.15;13.43;;;;;;;;;;5054356;28;20260;-66
2020/12/06 09:21:31;;;;;;;31.65;16.20;;;;;;;;;;5054885;28;20699;-66
2020/12/06 09:23:57;;;;;;;31.83;15.32;;;;;;;;;;5054694;28;20028;-67
2020/12/06 09:26:22;;;;;;;29.85;14.38;;;;;;;;;;5060044;28;20446;-67
2020/12/06 09:28:47;;;;;;;23.48;14.00;;;;;;;;;;5054338;28;20024;-67
2020/12/06 09:31:12;;;;;;;30.60;14.40;;;;;;;;;;5043716;28;20029;-67
2020/12/06 09:33:37;;;;;;;25.70;14.68;;;;;;;;;;5039571;28;20025;-67
2020/12/06 09:36:03;;;;;;;24.52;14.23;;;;;;;;;;5045858;28;20497;-67
2020/12/06 09:38:28;;;;;;;26.42;14.63;;;;;;;;;;5044072;28;20106;-67
2020/12/06 09:40:54;;;;;;;23.50;13.57;;;;;;;;;;5049266;28;20021;-67
2020/12/06 09:43:19;;;;;;;26.25;13.95;;;;;;;;;;5050957;28;20021;-66
2020/12/06 09:45:46;;;;;;;24.88;12.93;;;;;;;;;;5050565;28;20025;-66
2020/12/06 09:48:11;;;;;;;25.17;14.70;;;;;;;;;;5049864;28;20388;-67
2020/12/06 09:50:36;;;;;;;25.77;13.88;;;;;;;;;;5049490;28;20115;-67
2020/12/06 09:53:02;;;;;;;30.35;14.80;;;;;;;;;;5048442;28;20366;-66
2020/12/06 09:55:27;;;;;;;33.60;14.77;;;;;;;;;;5048662;28;20393;-65
2020/12/06 09:57:52;;;;;;;27.13;14.68;;;;;;;;;;5051355;28;20423;-66
2020/12/06 10:00:18;;;;;;;30.63;14.00;;;;;;;;;;5048537;28;20024;-66
2020/12/06 10:02:43;;;;;;;24.63;13.45;;;;;;;;;;5050005;28;20086;-66
2020/12/06 10:05:10;;;;;;;23.90;14.05;;;;;;;;;;5050517;28;20062;-66
2020/12/06 10:07:35;;;;;;;29.33;13.98;;;;;;;;;;5049842;28;20075;-66
2020/12/06 10:10:00;;;;;;;26.42;13.18;;;;;;;;;;5048351;28;20528;-67
2020/12/06 10:12:25;;;;;;;27.15;14.48;;;;;;;;;;5062586;28;20481;-67
2020/12/06 10:14:50;;;;;;;25.40;13.63;;;;;;;;;;5048495;28;20025;-67
2020/12/06 10:17:15;;;;;;;26.73;13.73;;;;;;;;;;5052373;28;20017;-67
2020/12/06 10:19:41;;;;;;;26.75;14.05;;;;;;;;;;5057113;28;20355;-67
2020/12/06 10:22:06;;;;;;;26.10;14.30;;;;;;;;;;5055743;28;20024;-67
2020/12/06 10:24:31;;;;;;;26.48;14.30;;;;;;;;;;5055322;28;20051;-67
2020/12/06 10:26:56;;;;;;;26.92;14.98;;;;;;;;;;5059544;28;20060;-66
2020/12/06 10:29:22;;;;;;;28.63;14.30;;;;;;;;;;5039347;28;20155;-67
2020/12/06 10:31:48;;;;;;;24.35;14.48;;;;;;;;;;5051378;28;20052;-67
2020/12/06 10:34:13;;;;;;;25.65;13.73;;;;;;;;;;5051354;28;20217;-67
2020/12/06 10:36:38;;;;;;;24.30;14.25;;;;;;;;;;5059634;28;20154;-67
2020/12/06 10:39:03;;;;;;;25.05;12.48;;;;;;;;;;5050007;28;20035;-66
2020/12/06 10:41:28;;;;;;;25.95;13.65;;;;;;;;;;5058735;28;20013;-67
2020/12/06 10:43:54;;;;;;;23.97;13.50;;;;;;;;;;5051690;28;20562;-67
2020/12/06 10:46:24;;;;;;;22.50;12.40;;;;;;;;;;5061613;28;20254;-67
2020/12/06 10:48:49;;;;;;;25.65;14.00;;;;;;;;;;5050751;28;20432;-67
2020/12/06 10:51:14;;;;;;;26.15;15.02;;;;;;;;;;5050995;28;20024;-67
2020/12/06 10:53:39;;;;;;;24.80;14.00;;;;;;;;;;5054753;28;20036;-67
2020/12/06 10:56:04;;;;;;;25.20;14.20;;;;;;;;;;5062931;28;20668;-67
2020/12/06 10:58:29;;;;;;;23.90;14.17;;;;;;;;;;5052381;28;20028;-67
2020/12/06 11:00:55;;;;;;;24.50;14.23;;;;;;;;;;5050248;28;20682;-67
2020/12/06 11:03:20;;;;;;;26.53;15.40;;;;;;;;;;5049127;28;20596;-67
2020/12/06 11:05:45;;;;;;;28.80;15.00;;;;;;;;;;5055162;28;20272;-67
2020/12/06 11:08:10;;;;;;;31.10;13.60;;;;;;;;;;5038663;28;20446;-68
2020/12/06 11:10:35;;;;;;;29.83;14.47;;;;;;;;;;5049877;28;20420;-67
2020/12/06 11:13:00;;;;;;;22.93;11.83;;;;;;;;;;5047678;28;20284;-66
2020/12/06 11:15:26;;;;;;;23.03;12.50;;;;;;;;;;5053260;28;20767;-67
2020/12/06 11:17:51;;;;;;;25.52;13.75;;;;;;;;;;5049289;28;20262;-67
2020/12/06 11:20:16;;;;;;;24.90;13.23;;;;;;;;;;5049645;28;20028;-66
2020/12/06 11:22:41;;;;;;;27.85;13.85;;;;;;;;;;5050031;28;20031;-67
2020/12/06 11:25:06;;;;;;;27.75;13.98;;;;;;;;;;5050604;28;20043;-66
2020/12/06 11:27:32;;;;;;;27.00;14.13;;;;;;;;;;5049411;28;20025;-67
2020/12/06 11:29:57;;;;;;;26.73;14.70;;;;;;;;;;5052095;28;20025;-67
2020/12/06 11:32:23;;;;;;;29.38;13.43;;;;;;;;;;5056456;28;20035;-67
2020/12/06 11:34:48;;;;;;;26.15;14.40;;;;;;;;;;5049359;28;20033;-66
2020/12/06 11:37:13;;;;;;;25.05;13.52;;;;;;;;;;5053776;28;20478;-66
2020/12/06 11:39:39;;;;;;;25.65;12.73;;;;;;;;;;5049297;28;20027;-67
2020/12/06 11:42:04;;;;;;;28.93;14.40;;;;;;;;;;5049230;28;20461;-66
2020/12/06 11:44:29;;;;;;;28.25;13.07;;;;;;;;;;5049760;28;20295;-67
2020/12/06 11:46:54;;;;;;;25.73;14.85;;;;;;;;;;5048167;28;20393;-66
2020/12/06 11:49:19;;;;;;;25.33;15.40;;;;;;;;;;5048295;28;20059;-66
2020/12/06 11:51:44;;;;;;;32.08;15.02;;;;;;;;;;5050179;28;20294;-66
2020/12/06 11:54:10;;;;;;;32.95;15.15;;;;;;;;;;5049694;28;20033;-67
2020/12/06 11:56:35;;;;;;;25.83;14.57;;;;;;;;;;5051700;28;20441;-67
2020/12/06 11:59:00;;;;;;;27.65;15.68;;;;;;;;;;5054049;28;20040;-66
2020/12/06 12:01:26;;;;;;;28.13;14.40;;;;;;;;;;5044851;28;20017;-67
2020/12/06 12:03:51;;;;;;;29.63;14.75;;;;;;;;;;5048931;28;20107;-66
2020/12/06 12:06:17;;;;;;;26.38;13.82;;;;;;;;;;5049655;28;20078;-66
2020/12/06 12:08:43;;;;;;;28.42;15.02;;;;;;;;;;5046762;28;20028;-68
2020/12/06 12:11:10;;;;;;;27.10;14.00;;;;;;;;;;5049050;28;20017;-68
2020/12/06 12:13:38;;;;;;;29.02;14.95;;;;;;;;;;5051096;28;20078;-68
2020/12/06 12:16:04;;;;;;;38.22;15.82;;;;;;;;;;5051147;28;20063;-67
2020/12/06 12:18:29;;;;;;;33.28;14.98;;;;;;;;;;5044313;28;20521;-67
2020/12/06 12:20:54;;;;;;;32.83;15.48;;;;;;;;;;5047536;28;20021;-67
2020/12/06 12:23:20;;;;;;;30.30;15.02;;;;;;;;;;5048937;28;20029;-67
2020/12/06 12:25:45;;;;;;;29.65;14.98;;;;;;;;;;5048408;28;20025;-67
2020/12/06 12:28:10;;;;;;;31.38;16.17;;;;;;;;;;5050239;28;20132;-67
2020/12/06 12:30:35;;;;;;;33.78;16.90;;;;;;;;;;5048304;28;20032;-67
2020/12/06 12:33:01;;;;;;;33.27;16.53;;;;;;;;;;5049916;28;20025;-66
2020/12/06 12:35:26;;;;;;;37.10;17.98;;;;;;;;;;5047730;28;20275;-67
2020/12/06 12:37:51;;;;;;;33.88;18.02;;;;;;;;;;5024259;28;20025;-67
2020/12/06 12:40:16;;;;;;;38.17;18.63;;;;;;;;;;5049023;28;20070;-67
2020/12/06 12:42:41;;;;;;;37.30;20.00;;;;;;;;;;5049897;28;20024;-67
2020/12/06 12:45:06;;;;;;;42.10;18.73;;;;;;;;;;5058726;28;20259;-67
2020/12/06 12:47:32;;;;;;;34.28;18.80;;;;;;;;;;5048420;28;20647;-67
2020/12/06 12:49:57;;;;;;;41.33;20.37;;;;;;;;;;5030988;28;20039;-67
2020/12/06 12:52:22;;;;;;;39.37;20.23;;;;;;;;;;5046857;28;20337;-67
2020/12/06 12:54:47;;;;;;;44.10;20.50;;;;;;;;;;5047378;28;20295;-67
2020/12/06 12:57:12;;;;;;;42.53;19.58;;;;;;;;;;5048522;28;20052;-67
2020/12/06 12:59:37;;;;;;;43.80;21.65;;;;;;;;;;5048190;28;20481;-67
2020/12/06 13:02:03;;;;;;;43.53;21.60;;;;;;;;;;5050350;28;20028;-68
2020/12/06 13:04:28;;;;;;;39.83;20.85;;;;;;;;;;5059174;28;20263;-66
2020/12/06 13:06:53;;;;;;;45.22;22.27;;;;;;;;;;5055588;28;20503;-67
2020/12/06 13:09:18;;;;;;;48.30;22.83;;;;;;;;;;5060041;28;20040;-67
2020/12/06 13:11:44;;;;;;;41.33;20.63;;;;;;;;;;5055051;28;20298;-67
2020/12/06 13:14:09;;;;;;;47.22;22.98;;;;;;;;;;5052536;28;20032;-67
2020/12/06 13:16:34;;;;;;;48.75;26.27;;;;;;;;;;5051673;28;20017;-68
2020/12/06 13:19:00;;;;;;;52.67;26.20;;;;;;;;;;5051793;28;20017;-67
2020/12/06 13:21:25;;;;;;;51.55;26.80;;;;;;;;;;5053018;28;20401;-67
2020/12/06 13:23:50;;;;;;;49.70;22.88;;;;;;;;;;5052777;28;20075;-67
2020/12/06 13:26:16;;;;;;;53.03;28.95;;;;;;;;;;5054346;28;20662;-67
2020/12/06 13:28:41;;;;;;;54.55;24.70;;;;;;;;;;5047727;28;20053;-67
2020/12/06 13:31:06;;;;;;;60.70;26.90;;;;;;;;;;5049651;28;20035;-68
2020/12/06 13:33:31;;;;;;;51.90;26.97;;;;;;;;;;5054493;28;20303;-68
2020/12/06 13:35:56;;;;;;;51.63;24.30;;;;;;;;;;5051130;28;20346;-66
2020/12/06 13:38:22;;;;;;;54.40;25.40;;;;;;;;;;5090089;22;20307;-68
2020/12/06 13:40:47;;;;;;;53.10;27.50;;;;;;;;;;5050564;28;20104;-68
2020/12/06 13:43:12;;;;;;;51.25;24.50;;;;;;;;;;5049833;28;20048;-68
2020/12/06 13:45:38;;;;;;;50.75;25.63;;;;;;;;;;5052176;28;20021;-68
2020/12/06 13:48:03;;;;;;;54.95;25.80;;;;;;;;;;5051436;28;20090;-68
2020/12/06 13:50:28;;;;;;;57.63;25.63;;;;;;;;;;5049844;28;20021;-68
2020/12/06 13:52:53;;;;;;;55.80;27.08;;;;;;;;;;5048508;28;20457;-65
2020/12/06 13:55:18;;;;;;;56.70;25.43;;;;;;;;;;5048612;28;20032;-68
2020/12/06 13:57:44;;;;;;;53.10;25.80;;;;;;;;;;5050590;28;20263;-66
2020/12/06 14:00:09;;;;;;;58.58;26.13;;;;;;;;;;5050400;28;20159;-66
2020/12/06 14:02:34;;;;;;;55.13;28.65;;;;;;;;;;5049102;28;20366;-66
2020/12/06 14:04:59;;;;;;;63.83;28.92;;;;;;;;;;5050834;28;20033;-65
2020/12/06 14:07:26;;;;;;;55.47;27.97;;;;;;;;;;5051266;28;20023;-66